Terminal Aerodrome Forecast
Issued by NWS

Home | Current Version | Previous Version | Text Only | Print | Product List | Glossary Off
Versions: 1 2 3 4 5 6 7 8 9 10 11 12 13 14 15

000
FTUS41 KCLE 280532
TAFFDY
TAF
KFDY 280532Z 2806/2906 20006KT P6SM SCT250
     FM281700 22012G20KT P6SM BKN050
     FM290000 20006KT P6SM BKN100=

USA.gov is the U.S. government's official web portal to all federal, state and local government web resources and services.